createdAt,value
2022-11-06T00:00:46.281Z,91.09
2022-11-06T00:01:47.901Z,90.81
2022-11-06T00:02:49.544Z,91.12
2022-11-06T00:03:54.613Z,91.37
2022-11-06T00:05:16.164Z,91.14
2022-11-06T00:06:36.253Z,91.28
2022-11-06T00:07:37.798Z,91.04
2022-11-06T00:08:40.991Z,90.89
2022-11-06T00:09:42.526Z,91.17
2022-11-06T00:10:44.101Z,91.09
2022-11-06T00:11:45.737Z,91.10
2022-11-06T00:12:47.334Z,90.75
2022-11-06T00:13:49.511Z,91.33
2022-11-06T00:14:51.045Z,91.49
2022-11-06T00:15:52.751Z,91.10
2022-11-06T00:16:54.384Z,91.13
2022-11-06T00:17:55.922Z,91.13
2022-11-06T00:19:00.270Z,90.87
2022-11-06T00:20:01.947Z,91.18
2022-11-06T00:21:13.794Z,91.32
2022-11-06T00:22:16.495Z,91.01
2022-11-06T00:23:18.062Z,90.94
2022-11-06T00:24:19.701Z,91.25
2022-11-06T00:25:21.247Z,91.04
2022-11-06T00:26:26.276Z,90.70
2022-11-06T00:27:28.377Z,90.78
2022-11-06T00:28:29.956Z,91.31
2022-11-06T00:29:31.520Z,91.20
2022-11-06T00:30:33.133Z,91.44
2022-11-06T00:31:37.065Z,91.07
2022-11-06T00:32:39.188Z,91.09
2022-11-06T00:33:40.918Z,90.74
2022-11-06T00:34:42.485Z,90.85
2022-11-06T00:35:44.043Z,90.92
2022-11-06T00:36:45.693Z,91.36
2022-11-06T00:37:47.237Z,91.26
2022-11-06T00:38:51.614Z,91.04
2022-11-06T00:39:53.190Z,90.78
2022-11-06T00:40:54.722Z,90.87
2022-11-06T00:41:56.327Z,91.29
2022-11-06T00:42:58.032Z,91.19
2022-11-06T00:44:00.906Z,91.06
2022-11-06T00:45:02.465Z,91.42
2022-11-06T00:46:08.181Z,91.19
2022-11-06T00:47:09.782Z,91.11
2022-11-06T00:48:11.635Z,91.04
2022-11-06T00:49:13.622Z,91.30
2022-11-06T00:50:15.412Z,91.00
2022-11-06T00:51:19.556Z,90.88
2022-11-06T00:52:21.117Z,91.25
2022-11-06T00:53:23.095Z,91.26
2022-11-06T00:54:24.803Z,91.17
2022-11-06T00:55:26.342Z,90.76
2022-11-06T00:56:27.985Z,90.88
2022-11-06T00:57:29.522Z,91.21
2022-11-06T00:58:31.129Z,90.84
2022-11-06T00:59:32.866Z,91.02
2022-11-06T01:00:34.417Z,91.41
2022-11-06T01:01:37.666Z,91.16
2022-11-06T01:02:39.435Z,91.29
2022-11-06T01:03:41.990Z,91.00
2022-11-06T01:04:43.533Z,90.88
2022-11-06T01:05:45.082Z,90.96
2022-11-06T01:06:49.240Z,90.91
2022-11-06T01:07:50.773Z,90.98
2022-11-06T01:08:52.976Z,91.19
2022-11-06T01:09:54.836Z,90.81
2022-11-06T01:10:56.379Z,90.91
2022-11-06T01:12:12.861Z,90.99
2022-11-06T01:13:15.411Z,90.93
2022-11-06T01:14:17.885Z,90.87
2022-11-06T01:15:19.446Z,90.72
2022-11-06T01:16:21.186Z,90.74
2022-11-06T01:17:22.828Z,90.73
2022-11-06T01:18:24.369Z,90.52
2022-11-06T01:19:25.962Z,90.61
2022-11-06T01:20:27.520Z,90.71
2022-11-06T01:21:34.276Z,90.58
2022-11-06T01:22:35.958Z,90.54
2022-11-06T01:23:37.530Z,90.65
2022-11-06T01:24:39.352Z,90.78
2022-11-06T01:25:40.977Z,90.89
2022-11-06T01:26:53.456Z,90.81
2022-11-06T01:28:04.254Z,90.63
2022-11-06T01:29:07.127Z,90.48
2022-11-06T01:30:09.183Z,90.53
2022-11-06T01:31:13.154Z,90.37
2022-11-06T01:32:14.910Z,90.41
2022-11-06T01:33:16.447Z,90.44
2022-11-06T01:34:18.241Z,90.49
2022-11-06T01:35:19.889Z,90.71
2022-11-06T01:36:21.671Z,90.53
2022-11-06T01:37:23.222Z,90.59
2022-11-06T01:38:24.776Z,90.72
2022-11-06T01:39:26.359Z,90.93
2022-11-06T01:40:27.945Z,90.96
2022-11-06T01:41:40.697Z,91.08
2022-11-06T01:42:42.249Z,90.79
2022-11-06T01:43:49.366Z,91.05
2022-11-06T01:45:05.932Z,91.45
2022-11-06T01:46:07.478Z,91.09
2022-11-06T01:47:27.276Z,91.04
2022-11-06T01:48:28.838Z,90.92
2022-11-06T01:49:34.732Z,91.06
2022-11-06T01:50:36.318Z,91.08
2022-11-06T01:51:49.751Z,91.02
2022-11-06T01:52:51.342Z,91.00
2022-11-06T01:53:52.904Z,90.98
2022-11-06T01:54:56.470Z,91.12
2022-11-06T01:55:59.312Z,90.78
2022-11-06T01:57:00.865Z,90.76
2022-11-06T01:58:03.191Z,90.91
2022-11-06T01:59:05.600Z,90.75
2022-11-06T02:00:08.029Z,90.56
2022-11-06T02:01:09.578Z,90.40
2022-11-06T02:02:11.613Z,90.78
2022-11-06T02:03:13.730Z,90.65
2022-11-06T02:04:24.994Z,90.72
2022-11-06T02:05:26.552Z,90.83
2022-11-06T02:06:28.141Z,90.55
2022-11-06T02:07:29.702Z,90.72
2022-11-06T02:08:31.303Z,90.82
2022-11-06T02:09:33.285Z,91.03
2022-11-06T02:10:34.833Z,90.89
2022-11-06T02:11:36.375Z,91.19
2022-11-06T02:12:59.362Z,91.36
2022-11-06T02:14:11.336Z,91.08
2022-11-06T02:15:42.050Z,90.69
2022-11-06T02:16:55.045Z,91.18
2022-11-06T02:18:25.470Z,91.07
2022-11-06T02:19:56.249Z,91.31
2022-11-06T02:21:09.931Z,91.06
2022-11-06T02:22:43.228Z,91.26
2022-11-06T02:23:58.836Z,91.51
2022-11-06T02:25:22.345Z,91.52
2022-11-06T02:26:50.976Z,91.56
2022-11-06T02:27:54.747Z,91.41
2022-11-06T02:28:59.479Z,91.48
2022-11-06T02:30:14.273Z,91.47
2022-11-06T02:31:17.225Z,91.38
2022-11-06T02:32:35.192Z,91.41
2022-11-06T02:33:38.702Z,91.13
2022-11-06T02:34:40.283Z,91.27
2022-11-06T02:35:50.548Z,91.58
2022-11-06T02:36:57.413Z,91.62
2022-11-06T02:38:01.341Z,91.35
2022-11-06T02:39:04.083Z,91.56
2022-11-06T02:40:07.354Z,91.57
2022-11-06T02:41:11.208Z,91.47
2022-11-06T02:42:12.971Z,91.57
2022-11-06T02:43:14.579Z,91.79
2022-11-06T02:44:20.715Z,91.75
2022-11-06T02:45:22.339Z,91.45
2022-11-06T02:46:28.875Z,91.69
2022-11-06T02:47:30.498Z,91.79
2022-11-06T02:48:34.862Z,91.67
2022-11-06T02:49:48.560Z,91.68
2022-11-06T02:50:50.681Z,91.85
2022-11-06T02:51:55.764Z,91.87
2022-11-06T02:53:07.114Z,92.08
2022-11-06T02:54:08.673Z,92.07
2022-11-06T02:55:10.222Z,92.00
2022-11-06T02:56:13.306Z,92.16
2022-11-06T02:57:15.852Z,91.96
2022-11-06T02:58:22.812Z,92.08
2022-11-06T02:59:33.295Z,92.12
2022-11-06T03:00:34.870Z,92.21
2022-11-06T03:01:40.410Z,92.01
2022-11-06T03:02:43.386Z,92.41
2022-11-06T03:03:48.259Z,91.98
2022-11-06T03:05:00.787Z,92.29
2022-11-06T03:06:06.775Z,92.01
2022-11-06T03:07:15.524Z,92.33
2022-11-06T03:08:21.744Z,92.06
2022-11-06T03:09:25.993Z,92.32
2022-11-06T03:10:30.752Z,92.28
2022-11-06T03:11:36.498Z,92.17
2022-11-06T03:12:41.536Z,92.03
2022-11-06T03:14:07.327Z,92.49
2022-11-06T03:15:33.286Z,92.38
2022-11-06T03:16:43.576Z,92.08
2022-11-06T03:17:51.660Z,92.07
2022-11-06T03:19:18.100Z,92.31
2022-11-06T03:20:28.606Z,92.34
2022-11-06T03:21:36.978Z,92.39
2022-11-06T03:22:44.386Z,92.67
2022-11-06T03:23:59.013Z,92.40
2022-11-06T03:25:11.902Z,92.47
2022-11-06T03:26:17.719Z,92.37
2022-11-06T03:27:49.852Z,92.65
2022-11-06T03:28:52.519Z,92.35
2022-11-06T03:30:01.348Z,92.37
2022-11-06T03:31:04.998Z,92.32
2022-11-06T03:32:17.854Z,92.45
2022-11-06T03:33:20.793Z,92.45
2022-11-06T03:34:30.263Z,92.41
2022-11-06T03:35:42.810Z,92.44
2022-11-06T03:36:45.000Z,92.46
2022-11-06T03:37:54.072Z,92.64
2022-11-06T03:38:58.940Z,92.57
2022-11-06T03:40:01.783Z,92.56
2022-11-06T03:41:14.989Z,92.59
2022-11-06T03:42:20.627Z,92.91
2022-11-06T03:43:23.507Z,92.98
2022-11-06T03:44:27.862Z,92.80
2022-11-06T03:45:29.962Z,92.69
2022-11-06T03:46:31.535Z,92.78
2022-11-06T03:47:41.479Z,92.53
2022-11-06T03:48:46.039Z,92.75
2022-11-06T03:49:50.676Z,92.85
2022-11-06T03:51:04.331Z,92.80
2022-11-06T03:52:08.775Z,93.01
2022-11-06T03:53:16.003Z,93.00
2022-11-06T03:54:20.065Z,92.79
2022-11-06T03:55:24.960Z,92.89
2022-11-06T03:56:31.242Z,92.79
2022-11-06T03:57:57.124Z,92.98
2022-11-06T03:58:58.798Z,93.15
2022-11-06T04:00:01.236Z,92.96
2022-11-06T04:01:04.108Z,92.97
2022-11-06T04:02:05.852Z,92.90
2022-11-06T04:03:28.610Z,93.23
2022-11-06T04:04:43.759Z,93.19
2022-11-06T04:05:51.099Z,93.36
2022-11-06T04:06:55.637Z,93.16
2022-11-06T04:08:16.060Z,92.96
2022-11-06T04:09:36.030Z,93.28
2022-11-06T04:10:57.612Z,92.85
2022-11-06T04:12:18.606Z,92.89
2022-11-06T04:13:38.847Z,92.60
2022-11-06T04:14:42.181Z,92.82
2022-11-06T04:15:48.126Z,92.93
2022-11-06T04:16:51.948Z,93.09
2022-11-06T04:17:53.542Z,92.87
2022-11-06T04:18:55.177Z,92.75
2022-11-06T04:19:58.675Z,92.92
2022-11-06T04:21:27.942Z,92.71
2022-11-06T04:22:36.511Z,92.91
2022-11-06T04:24:21.100Z,92.97
2022-11-06T04:25:55.397Z,92.94
2022-11-06T04:27:22.789Z,93.01
2022-11-06T04:28:33.234Z,93.03
2022-11-06T04:29:55.715Z,93.07
2022-11-06T04:31:25.737Z,93.28
2022-11-06T04:32:37.496Z,93.33
2022-11-06T04:33:59.071Z,92.80
2022-11-06T04:35:09.955Z,92.81
2022-11-06T04:36:41.516Z,92.85
2022-11-06T04:37:56.895Z,92.70
2022-11-06T04:39:21.213Z,92.55
2022-11-06T04:40:25.606Z,92.38
2022-11-06T04:41:47.139Z,92.59
2022-11-06T04:43:06.688Z,92.66
2022-11-06T04:44:17.427Z,92.73
2022-11-06T04:45:30.265Z,92.72
2022-11-06T04:46:38.039Z,92.62
2022-11-06T04:47:39.677Z,93.05
2022-11-06T04:48:41.228Z,92.82
2022-11-06T04:49:42.994Z,92.53
2022-11-06T04:50:48.494Z,93.08
2022-11-06T04:51:50.088Z,92.77
2022-11-06T04:52:51.951Z,93.01
2022-11-06T04:53:53.519Z,93.09
2022-11-06T04:54:55.777Z,92.86
2022-11-06T04:56:01.195Z,93.04
2022-11-06T04:57:02.789Z,92.84
2022-11-06T04:58:04.309Z,92.96
2022-11-06T04:59:05.935Z,92.88
2022-11-06T05:00:08.035Z,92.89
2022-11-06T05:01:09.987Z,92.75
2022-11-06T05:02:11.683Z,92.80
2022-11-06T05:03:14.339Z,92.95
2022-11-06T05:04:15.920Z,92.68
2022-11-06T05:05:17.590Z,92.85
2022-11-06T05:06:19.223Z,92.77
2022-11-06T05:07:20.796Z,92.67
2022-11-06T05:08:22.405Z,92.62
2022-11-06T05:09:24.323Z,92.67
2022-11-06T05:10:25.893Z,92.52
2022-11-06T05:11:27.536Z,92.86
2022-11-06T05:12:29.087Z,93.12
2022-11-06T05:13:30.639Z,92.88
2022-11-06T05:14:32.718Z,92.93
2022-11-06T05:15:34.255Z,93.04
2022-11-06T05:16:35.894Z,93.19
2022-11-06T05:17:37.438Z,93.12
2022-11-06T05:18:39.174Z,93.47
2022-11-06T05:19:40.730Z,93.31
2022-11-06T05:20:42.276Z,93.24
2022-11-06T05:22:02.616Z,93.16
2022-11-06T05:23:04.199Z,93.13
2022-11-06T05:24:06.113Z,93.21
2022-11-06T05:25:08.099Z,93.20
2022-11-06T05:26:09.665Z,93.26
2022-11-06T05:27:11.206Z,92.96
2022-11-06T05:28:12.980Z,93.06
2022-11-06T05:29:14.789Z,92.91
2022-11-06T05:30:16.441Z,93.07
2022-11-06T05:31:18.261Z,93.13
2022-11-06T05:32:19.814Z,93.10
2022-11-06T05:33:21.371Z,92.83
2022-11-06T05:34:22.999Z,92.77
2022-11-06T05:35:24.649Z,92.63
2022-11-06T05:36:26.298Z,92.64
2022-11-06T05:37:28.163Z,92.60
2022-11-06T05:38:29.933Z,92.51
2022-11-06T05:39:31.562Z,92.37
2022-11-06T05:40:33.111Z,92.32
2022-11-06T05:41:34.643Z,92.34
2022-11-06T05:42:40.012Z,92.36
2022-11-06T05:43:41.579Z,92.33
2022-11-06T05:44:43.329Z,92.40
2022-11-06T05:45:44.898Z,92.48
2022-11-06T05:46:49.209Z,92.40
2022-11-06T05:47:51.304Z,92.28
2022-11-06T05:48:52.876Z,92.03
2022-11-06T05:49:54.850Z,92.35
2022-11-06T05:51:03.644Z,92.38
2022-11-06T05:52:05.185Z,92.09
2022-11-06T05:53:06.818Z,92.44
2022-11-06T05:54:08.365Z,92.58
2022-11-06T05:55:14.384Z,92.54
2022-11-06T05:56:16.561Z,92.48
2022-11-06T05:57:18.146Z,92.32
2022-11-06T05:58:20.115Z,92.38
2022-11-06T05:59:21.675Z,92.43
2022-11-06T06:00:23.308Z,92.48
2022-11-06T06:01:25.033Z,92.35
2022-11-06T06:02:26.730Z,92.39
2022-11-06T06:03:28.445Z,92.33
2022-11-06T06:04:29.967Z,91.97
2022-11-06T06:05:31.520Z,92.00
2022-11-06T06:06:33.486Z,91.93
2022-11-06T06:07:35.222Z,92.00
2022-11-06T06:08:36.774Z,91.84
2022-11-06T06:09:38.353Z,91.72
2022-11-06T06:10:43.466Z,91.53
2022-11-06T06:11:45.102Z,91.63
2022-11-06T06:12:46.731Z,91.71
2022-11-06T06:13:48.546Z,91.56
2022-11-06T06:14:50.662Z,91.49
2022-11-06T06:15:52.293Z,91.31
2022-11-06T06:16:53.907Z,91.27
2022-11-06T06:17:55.459Z,91.46
2022-11-06T06:18:57.078Z,91.36
2022-11-06T06:19:58.994Z,91.26
2022-11-06T06:21:00.571Z,91.42
2022-11-06T06:22:02.216Z,91.38
2022-11-06T06:23:03.853Z,91.50
2022-11-06T06:24:05.731Z,91.58
2022-11-06T06:25:14.679Z,91.59
2022-11-06T06:26:22.867Z,91.34
2022-11-06T06:27:27.657Z,91.40
2022-11-06T06:28:29.234Z,91.19
2022-11-06T06:29:30.785Z,91.40
2022-11-06T06:30:32.329Z,91.31
2022-11-06T06:31:34.076Z,91.22
2022-11-06T06:32:35.619Z,91.49
2022-11-06T06:33:37.185Z,91.39
2022-11-06T06:34:38.721Z,91.28
2022-11-06T06:35:40.318Z,91.52
2022-11-06T06:36:41.917Z,91.32
2022-11-06T06:37:50.180Z,91.43
2022-11-06T06:38:51.810Z,91.57
2022-11-06T06:39:53.355Z,91.39
2022-11-06T06:40:54.996Z,91.53
2022-11-06T06:41:56.543Z,91.61
2022-11-06T06:42:58.239Z,91.58
2022-11-06T06:43:59.991Z,91.78
2022-11-06T06:45:01.537Z,91.88
2022-11-06T06:46:04.827Z,91.85
2022-11-06T06:47:06.453Z,91.87
2022-11-06T06:48:08.215Z,91.96
2022-11-06T06:49:09.916Z,91.93
2022-11-06T06:50:11.505Z,92.09
2022-11-06T06:51:13.134Z,92.08
2022-11-06T06:52:14.793Z,91.95
2022-11-06T06:53:16.431Z,91.99
2022-11-06T06:54:18.092Z,92.13
2022-11-06T06:55:19.657Z,92.02
2022-11-06T06:56:21.209Z,92.18
2022-11-06T06:57:22.831Z,92.20
2022-11-06T06:58:24.891Z,92.17
2022-11-06T06:59:28.239Z,92.32
2022-11-06T07:00:29.894Z,92.37
2022-11-06T07:01:31.696Z,92.30
2022-11-06T07:02:33.555Z,92.57
2022-11-06T07:03:35.130Z,92.73
2022-11-06T07:04:36.748Z,92.59
2022-11-06T07:05:38.317Z,92.48
2022-11-06T07:06:39.901Z,92.59
2022-11-06T07:07:41.451Z,92.50
2022-11-06T07:08:43.052Z,92.39
2022-11-06T07:09:44.641Z,92.28
2022-11-06T07:10:46.254Z,92.20
2022-11-06T07:11:47.815Z,92.25
2022-11-06T07:12:49.417Z,92.05
2022-11-06T07:13:50.991Z,91.99
2022-11-06T07:14:52.539Z,92.14
2022-11-06T07:15:54.261Z,92.12
2022-11-06T07:16:55.804Z,91.82
2022-11-06T07:18:06.785Z,91.83
2022-11-06T07:19:08.325Z,91.85
2022-11-06T07:20:10.305Z,91.84
2022-11-06T07:21:12.627Z,91.74
2022-11-06T07:22:14.211Z,91.76
2022-11-06T07:23:15.787Z,91.81
2022-11-06T07:24:18.216Z,91.88
2022-11-06T07:25:19.770Z,91.69
2022-11-06T07:26:21.406Z,91.82
2022-11-06T07:27:22.968Z,92.21
2022-11-06T07:28:24.545Z,92.45
2022-11-06T07:29:26.088Z,92.64
2022-11-06T07:30:28.037Z,92.43
2022-11-06T07:31:31.313Z,92.61
2022-11-06T07:32:32.956Z,92.59
2022-11-06T07:33:34.758Z,92.60
2022-11-06T07:34:38.923Z,92.51
2022-11-06T07:35:40.946Z,92.33
2022-11-06T07:36:42.547Z,92.58
2022-11-06T07:37:44.577Z,92.64
2022-11-06T07:38:46.175Z,92.57
2022-11-06T07:39:47.712Z,92.42
2022-11-06T07:40:49.322Z,92.19
2022-11-06T07:41:50.877Z,92.42
2022-11-06T07:42:52.437Z,92.59
2022-11-06T07:43:54.059Z,92.20
2022-11-06T07:44:55.767Z,92.12
2022-11-06T07:46:01.705Z,92.30
2022-11-06T07:47:03.350Z,92.50
2022-11-06T07:48:05.749Z,92.55
2022-11-06T07:49:07.287Z,92.38
2022-11-06T07:50:09.002Z,92.36
2022-11-06T07:51:10.858Z,92.49
2022-11-06T07:52:12.488Z,92.50
2022-11-06T07:53:14.301Z,92.40
2022-11-06T07:54:16.173Z,92.54
2022-11-06T07:55:17.800Z,92.76
2022-11-06T07:56:19.385Z,92.59
2022-11-06T07:57:20.941Z,92.57
2022-11-06T07:58:22.997Z,92.14
2022-11-06T07:59:24.572Z,92.32
2022-11-06T08:00:26.229Z,92.83
2022-11-06T08:01:27.908Z,92.87
2022-11-06T08:02:29.645Z,93.09
2022-11-06T08:03:31.392Z,92.59
2022-11-06T08:04:33.041Z,92.53
2022-11-06T08:05:34.633Z,92.48
2022-11-06T08:06:36.168Z,92.09
2022-11-06T08:07:37.849Z,92.34
2022-11-06T08:08:39.424Z,92.67
2022-11-06T08:09:41.012Z,92.69
2022-11-06T08:10:43.816Z,92.82
2022-11-06T08:11:45.398Z,92.87
2022-11-06T08:12:46.954Z,92.56
2022-11-06T08:13:48.501Z,92.69
2022-11-06T08:14:50.097Z,92.72
2022-11-06T08:15:51.710Z,92.68
2022-11-06T08:16:53.266Z,92.43
2022-11-06T08:17:54.826Z,92.51
2022-11-06T08:18:56.623Z,92.48
2022-11-06T08:19:58.232Z,92.67
2022-11-06T08:21:00.012Z,92.96
2022-11-06T08:22:01.584Z,92.97
2022-11-06T08:23:04.105Z,92.83
2022-11-06T08:24:05.963Z,92.49
2022-11-06T08:25:08.357Z,92.91
2022-11-06T08:26:10.559Z,92.97
2022-11-06T08:27:12.115Z,93.00
2022-11-06T08:28:13.987Z,93.00
2022-11-06T08:29:16.269Z,93.07
2022-11-06T08:30:17.833Z,93.20
2022-11-06T08:31:21.222Z,92.55
2022-11-06T08:32:22.810Z,92.30
2022-11-06T08:33:24.548Z,92.53
2022-11-06T08:34:26.087Z,92.11
2022-11-06T08:35:27.661Z,92.25
2022-11-06T08:36:29.233Z,92.59
2022-11-06T08:37:30.774Z,92.83
2022-11-06T08:38:32.391Z,92.34
2022-11-06T08:39:33.997Z,92.40
2022-11-06T08:40:37.280Z,92.35
2022-11-06T08:41:39.815Z,92.44
2022-11-06T08:42:41.406Z,92.64
2022-11-06T08:43:43.023Z,92.54
2022-11-06T08:44:44.639Z,92.70
2022-11-06T08:45:46.210Z,92.81
2022-11-06T08:46:51.921Z,92.60
2022-11-06T08:47:53.901Z,92.50
2022-11-06T08:48:55.540Z,92.24
2022-11-06T08:49:57.098Z,92.43
2022-11-06T08:50:58.701Z,92.45
2022-11-06T08:52:00.287Z,92.12
2022-11-06T08:53:04.214Z,92.38
2022-11-06T08:54:06.096Z,92.43
2022-11-06T08:55:08.062Z,92.09
2022-11-06T08:56:09.626Z,92.43
2022-11-06T08:57:11.179Z,92.50
2022-11-06T08:58:14.129Z,92.53
2022-11-06T08:59:15.804Z,92.71
2022-11-06T09:00:17.498Z,92.89
2022-11-06T09:01:19.156Z,92.56
2022-11-06T09:02:20.822Z,92.71
2022-11-06T09:03:22.492Z,92.49
2022-11-06T09:04:24.058Z,92.64
2022-11-06T09:05:25.772Z,92.44
2022-11-06T09:06:27.387Z,92.11
2022-11-06T09:07:28.966Z,92.47
2022-11-06T09:08:30.518Z,92.16
2022-11-06T09:09:32.181Z,92.36
2022-11-06T09:10:33.818Z,92.62
2022-11-06T09:11:35.403Z,92.46
2022-11-06T09:12:36.971Z,92.37
2022-11-06T09:13:38.638Z,92.40
2022-11-06T09:14:40.309Z,92.56
2022-11-06T09:15:41.925Z,92.32
2022-11-06T09:16:43.526Z,91.80
2022-11-06T09:17:48.619Z,92.04
2022-11-06T09:18:50.188Z,91.83
2022-11-06T09:19:51.745Z,91.86
2022-11-06T09:20:56.877Z,91.91
2022-11-06T09:21:58.510Z,91.84
2022-11-06T09:23:01.816Z,91.89
2022-11-06T09:24:03.530Z,91.30
2022-11-06T09:25:05.651Z,91.70
2022-11-06T09:26:07.211Z,91.73
2022-11-06T09:27:08.840Z,91.58
2022-11-06T09:28:10.624Z,91.46
2022-11-06T09:29:12.257Z,91.27
2022-11-06T09:30:14.797Z,91.07
2022-11-06T09:31:16.445Z,91.63
2022-11-06T09:32:18.066Z,91.39
2022-11-06T09:33:20.186Z,91.49
2022-11-06T09:34:22.126Z,91.52
2022-11-06T09:35:24.673Z,91.63
2022-11-06T09:36:26.257Z,91.73
2022-11-06T09:37:27.876Z,92.04
2022-11-06T09:38:29.507Z,92.01
2022-11-06T09:39:31.104Z,92.05
2022-11-06T09:40:51.186Z,92.00
2022-11-06T09:42:00.189Z,91.93
2022-11-06T09:44:04.063Z,91.98
2022-11-06T09:45:22.960Z,91.29
2022-11-06T09:46:28.256Z,91.06
2022-11-06T09:47:32.204Z,91.79
2022-11-06T09:48:39.893Z,91.62
2022-11-06T09:49:48.457Z,91.88
2022-11-06T09:51:01.627Z,91.02
2022-11-06T09:52:08.745Z,90.62
2022-11-06T09:53:18.430Z,90.82
2022-11-06T09:54:23.996Z,90.65
2022-11-06T09:55:29.532Z,90.80
2022-11-06T09:56:34.254Z,90.91
2022-11-06T09:57:38.782Z,90.66
2022-11-06T09:58:42.091Z,90.56
2022-11-06T09:59:43.658Z,91.01
2022-11-06T10:00:45.398Z,90.95
2022-11-06T10:01:55.378Z,91.21
2022-11-06T10:03:20.025Z,90.95
2022-11-06T10:04:42.134Z,90.51
2022-11-06T10:05:43.896Z,91.03
2022-11-06T10:06:45.486Z,90.63
2022-11-06T10:07:47.091Z,90.43
2022-11-06T10:08:48.661Z,90.32
2022-11-06T10:09:50.214Z,90.30
2022-11-06T10:11:17.437Z,90.85
2022-11-06T10:12:28.929Z,90.81
2022-11-06T10:13:54.337Z,90.37
2022-11-06T10:15:18.081Z,90.37
2022-11-06T10:16:36.359Z,90.36
2022-11-06T10:17:53.890Z,90.48
2022-11-06T10:19:20.181Z,90.31
2022-11-06T10:20:29.097Z,90.60
2022-11-06T10:22:10.701Z,90.71
2022-11-06T10:23:28.323Z,90.67
2022-11-06T10:24:45.998Z,90.92
2022-11-06T10:26:18.803Z,91.03
2022-11-06T10:27:29.169Z,90.60
2022-11-06T10:28:50.952Z,90.74
2022-11-06T10:30:13.267Z,90.83
2022-11-06T10:31:18.806Z,90.52
2022-11-06T10:32:38.918Z,90.89
2022-11-06T10:34:06.815Z,90.82
2022-11-06T10:35:35.778Z,90.02
2022-11-06T10:36:49.524Z,90.42
2022-11-06T10:38:01.527Z,89.64
2022-11-06T10:39:04.079Z,89.95
2022-11-06T10:40:06.169Z,90.12
2022-11-06T10:41:17.736Z,89.63
2022-11-06T10:42:20.839Z,89.23
2022-11-06T10:43:30.327Z,89.57
2022-11-06T10:44:52.086Z,90.05
2022-11-06T10:46:35.451Z,89.37
2022-11-06T10:47:40.135Z,89.58
2022-11-06T10:48:46.092Z,89.63
2022-11-06T10:49:52.844Z,89.86
2022-11-06T10:51:06.540Z,89.52
2022-11-06T10:52:30.121Z,88.93
2022-11-06T10:53:55.683Z,89.09
2022-11-06T10:55:24.423Z,89.08
2022-11-06T10:56:39.255Z,89.12
2022-11-06T10:57:51.031Z,89.50
2022-11-06T10:58:52.852Z,88.96
2022-11-06T10:59:54.543Z,88.83
2022-11-06T11:01:01.160Z,88.81
2022-11-06T11:02:03.566Z,89.01
2022-11-06T11:03:07.121Z,88.92
2022-11-06T11:04:08.747Z,89.45
2022-11-06T11:05:14.802Z,89.58
2022-11-06T11:06:16.583Z,89.65
2022-11-06T11:07:21.655Z,89.23
2022-11-06T11:08:51.062Z,88.74
2022-11-06T11:09:52.806Z,89.09
2022-11-06T11:11:05.368Z,88.49
2022-11-06T11:12:19.123Z,88.69
2022-11-06T11:13:20.959Z,88.71
2022-11-06T11:14:26.945Z,88.75
2022-11-06T11:15:43.915Z,88.63
2022-11-06T11:16:45.470Z,88.79
2022-11-06T11:18:12.411Z,88.94
2022-11-06T11:19:44.213Z,88.71
2022-11-06T11:20:52.461Z,88.68
2022-11-06T11:21:58.441Z,88.57
2022-11-06T11:23:15.748Z,88.45
2022-11-06T11:24:17.319Z,89.04
2022-11-06T11:25:25.523Z,89.26
2022-11-06T11:26:28.451Z,89.18
2022-11-06T11:27:37.568Z,88.61
2022-11-06T11:28:39.767Z,88.18
2022-11-06T11:29:50.059Z,88.27
2022-11-06T11:30:56.229Z,88.37
2022-11-06T11:32:00.784Z,88.83
2022-11-06T11:33:02.857Z,88.60
2022-11-06T11:34:06.063Z,88.80
2022-11-06T11:35:09.397Z,88.49
2022-11-06T11:36:11.032Z,88.65
2022-11-06T11:37:26.420Z,88.89
2022-11-06T11:38:28.384Z,88.67
2022-11-06T11:39:31.044Z,88.38
2022-11-06T11:40:37.882Z,88.26
2022-11-06T11:41:39.773Z,88.00
2022-11-06T11:42:41.548Z,88.20
2022-11-06T11:43:43.494Z,88.54
2022-11-06T11:44:45.191Z,88.15
2022-11-06T11:46:05.712Z,88.00
2022-11-06T11:47:19.731Z,87.43
2022-11-06T11:48:21.279Z,87.56
2022-11-06T11:49:30.856Z,88.06
2022-11-06T11:50:33.233Z,87.68
2022-11-06T11:51:38.738Z,87.98
2022-11-06T11:52:42.715Z,88.13
2022-11-06T11:53:44.515Z,88.17
2022-11-06T11:54:50.839Z,88.22
2022-11-06T11:55:53.119Z,88.24
2022-11-06T11:57:08.401Z,88.69
2022-11-06T11:58:26.099Z,88.15
2022-11-06T11:59:31.584Z,88.14
2022-11-06T12:00:33.398Z,87.76
2022-11-06T12:01:40.111Z,87.72
2022-11-06T12:02:47.029Z,87.55
2022-11-06T12:03:50.131Z,87.35
2022-11-06T12:04:54.071Z,87.68
2022-11-06T12:06:10.422Z,87.56
2022-11-06T12:07:33.037Z,87.35
2022-11-06T12:08:34.648Z,87.47
2022-11-06T12:09:42.291Z,87.55
2022-11-06T12:10:43.960Z,87.18
2022-11-06T12:11:45.782Z,87.12
2022-11-06T12:12:50.531Z,87.20
2022-11-06T12:14:16.561Z,87.79
2022-11-06T12:15:28.581Z,88.02
2022-11-06T12:16:30.194Z,87.93
2022-11-06T12:17:33.533Z,87.77
2022-11-06T12:18:36.320Z,87.83
2022-11-06T12:19:38.173Z,87.26
2022-11-06T12:21:02.309Z,87.74
2022-11-06T12:22:07.122Z,87.65
2022-11-06T12:23:34.477Z,87.49
2022-11-06T12:24:54.569Z,87.42
2022-11-06T12:26:09.782Z,86.90
2022-11-06T12:27:15.297Z,86.88
2022-11-06T12:28:17.666Z,86.70
2022-11-06T12:29:24.220Z,86.79
2022-11-06T12:30:26.273Z,86.84
2022-11-06T12:31:46.589Z,87.07
2022-11-06T12:33:11.484Z,87.37
2022-11-06T12:34:21.244Z,87.42
2022-11-06T12:35:42.578Z,86.82
2022-11-06T12:36:52.936Z,87.24
2022-11-06T12:38:05.351Z,87.54
2022-11-06T12:39:12.639Z,87.76
2022-11-06T12:40:24.984Z,87.71
2022-11-06T12:41:29.904Z,87.87
2022-11-06T12:42:31.956Z,86.66
2022-11-06T12:43:39.045Z,86.58
2022-11-06T12:44:40.689Z,86.61
2022-11-06T12:45:44.049Z,86.72
2022-11-06T12:46:53.744Z,87.13
2022-11-06T12:47:59.575Z,86.92
2022-11-06T12:49:10.146Z,87.17
2022-11-06T12:50:37.031Z,87.00
2022-11-06T12:52:03.007Z,86.89
2022-11-06T12:53:39.969Z,87.27
2022-11-06T12:55:20.315Z,87.19
2022-11-06T12:56:36.878Z,87.36
2022-11-06T12:57:38.508Z,87.29
2022-11-06T12:58:52.279Z,86.97
2022-11-06T13:00:09.860Z,87.09
2022-11-06T13:01:28.186Z,87.33
2022-11-06T13:02:42.183Z,87.39
2022-11-06T13:03:59.666Z,87.19
2022-11-06T13:05:19.353Z,86.97
2022-11-06T13:07:01.376Z,87.54
2022-11-06T13:08:12.185Z,87.20
2022-11-06T13:09:21.431Z,86.91
2022-11-06T13:10:33.748Z,86.96
2022-11-06T13:11:55.991Z,87.01
2022-11-06T13:13:15.240Z,87.27
2022-11-06T13:14:19.719Z,87.51
2022-11-06T13:15:29.465Z,87.50
2022-11-06T13:16:31.075Z,86.71
2022-11-06T13:17:36.840Z,86.09
2022-11-06T13:18:43.429Z,86.20
2022-11-06T13:19:45.044Z,86.21
2022-11-06T13:21:01.010Z,86.55
2022-11-06T13:22:15.371Z,87.16
2022-11-06T13:23:42.618Z,87.19
2022-11-06T13:25:35.136Z,86.35
2022-11-06T13:26:50.999Z,85.74
2022-11-06T13:27:57.621Z,86.18
2022-11-06T13:29:00.941Z,85.58
2022-11-06T13:30:13.398Z,85.96
2022-11-06T13:31:16.189Z,85.76
2022-11-06T13:32:20.134Z,85.70
2022-11-06T13:33:27.041Z,85.65
2022-11-06T13:34:37.371Z,85.48
2022-11-06T13:35:40.543Z,85.54
2022-11-06T13:36:42.253Z,85.39
2022-11-06T13:37:45.913Z,85.94
2022-11-06T13:38:55.366Z,85.79
2022-11-06T13:40:04.438Z,85.74
2022-11-06T13:41:21.850Z,85.88
2022-11-06T13:42:27.234Z,85.80
2022-11-06T13:43:30.280Z,85.75
2022-11-06T13:44:32.325Z,85.89
2022-11-06T13:45:43.982Z,85.68
2022-11-06T13:46:56.770Z,86.01
2022-11-06T13:48:06.137Z,86.32
2022-11-06T13:49:19.242Z,86.14
2022-11-06T13:50:43.199Z,86.11
2022-11-06T13:51:58.703Z,86.23
2022-11-06T13:53:15.749Z,85.99
2022-11-06T13:54:38.163Z,86.30
2022-11-06T13:56:16.016Z,86.53
2022-11-06T13:57:36.310Z,86.71
2022-11-06T13:59:10.520Z,86.72
2022-11-06T14:00:22.885Z,86.53
2022-11-06T14:01:30.773Z,86.48
2022-11-06T14:02:44.755Z,86.45
2022-11-06T14:03:55.299Z,86.76
2022-11-06T14:05:18.199Z,86.68
2022-11-06T14:06:21.729Z,86.69
2022-11-06T14:07:23.775Z,86.61
2022-11-06T14:08:53.329Z,86.58
2022-11-06T14:09:55.005Z,87.03
2022-11-06T14:10:58.908Z,87.09
2022-11-06T14:12:02.619Z,87.30
2022-11-06T14:13:05.067Z,87.24
2022-11-06T14:14:14.573Z,87.28
2022-11-06T14:15:21.843Z,87.06
2022-11-06T14:16:27.411Z,87.10
2022-11-06T14:17:28.962Z,87.30
2022-11-06T14:18:31.607Z,87.43